CheckWX is a tool to help pilots better visualize weather data.  It is not intended as a substitute for an official pre-flight weather briefing.

12:53:04 UTC

KINT TAF
Smith Reynolds Airport
Winston Salem, North Carolina, USA
KINT 221120Z 2212/2312 VRB05KT P6SM OVC050 FM221800 27014G26KT P6SM SCT090 FM222000 29016G30KT P6SM SCT090 FM222300 31013G25KT P6SM FEW250 FM230300 30006KT P6SM SKC

Mar-22@
12:00 UTC

Mar-22 @ 12:00 UTC

Mar-22@
18:00 UTC

Mar-22 @ 18:00 UTC

KINT 221120Z 2212/2312 VRB05KT P6SM OVC050
Wind
  • Variable at 5 KTS
Cloud Levels
  • Overcast at 5,000' AGL

Mar-22@
18:00 UTC

Mar-22 @ 18:00 UTC

Mar-22@
20:00 UTC

Mar-22 @ 20:00 UTC

FM221800 27014G26KT P6SM SCT090

From

From Standard forecast or significant change

Wind
  • 270° at 14 KTS
  • {Gusting to 26 KTS
Cloud Levels
  • Scattered at 9,000' AGL

Mar-22@
20:00 UTC

Mar-22 @ 20:00 UTC

Mar-22@
23:00 UTC

Mar-22 @ 23:00 UTC

FM222000 29016G30KT P6SM SCT090

From

From Standard forecast or significant change

Wind
  • 290° at 16 KTS
  • {Gusting to 30 KTS
Cloud Levels
  • Scattered at 9,000' AGL

Mar-22@
23:00 UTC

Mar-22 @ 23:00 UTC

Mar-23@
03:00 UTC

Mar-23 @ 03:00 UTC

FM222300 31013G25KT P6SM FEW250

From

From Standard forecast or significant change

Wind
  • 310° at 13 KTS
  • {Gusting to 25 KTS
Cloud Levels
  • Few at 25,000' AGL

Mar-23@
03:00 UTC

Mar-23 @ 03:00 UTC

Mar-23@
12:00 UTC

Mar-23 @ 12:00 UTC

FM230300 30006KT P6SM SKC

From

From Standard forecast or significant change

Wind
  • 300° at 6 KTS
Cloud Levels
  • Clear skies